Aérodrome :
LOGIN :

S'inscrire | Disclaimer

   EN    FR    IT 

 










Légende :    VFR   VFR Marginal   IFR   IFR Intensif   IFR Très Intensif
Visi : 
Plafond : 
>= 8 km
>= 3000ft
5 à 8 km
1000 à 3000 ft
1500m à 5 km
500 à 1000 ft
800 à 1500m
200 à 500 ft
< 800m
< 200 ft
Symboles :   Orages  Brouillard  Fortes neiges  Fortes précipitations  Vent > 20 kt
SIGMETs :   Divers  Orages  Givrage  Turbulence  Onde Orograph.  Cendres Volcan.






- Altitude de l'aérodrome : 220 ft
- Code IATA : CWL


EGFF - Cardiff Rhoose

DERNIER METAR :
  • 091620Z AUTO 33005KT 290V020 9999 FEW021 22/17 Q1018

METARs EXPIRÉS :
  • 091550Z AUTO 07007KT 040V100 9999 BKN021 23/18 Q1018
  • 091520Z AUTO 10008KT 050V130 9999 BKN022 23/17 Q1018
  • 091450Z AUTO 12009KT 080V150 9999 NCD 23/17 Q1018
  • 091420Z AUTO 08006KT 010V160 9999 NCD 23/16 Q1018
  • 091350Z AUTO 11006KT 010V150 9999 NCD 22/16 Q1018

TAF AMD TAF EGFF
Valide du 09 à 16h jusqu'au 10 à 12h UTC


091613Z 0916/1012 06009KT 9999 FEW032
TEMPO 0916/1004 6000
PROB30
TEMPO 1004/1012 4000 +SHRA
ATIS : +44 1446 729 319



MET'MAP, la Météo Aéronautique d'un coup d'oeil ! - Copyright ORBIFLY Décembre 2007 - Disclaimer

ORBIFLY MET'MAP TEAM :

Programmation & Développement : Alexandra Zaïnal
Sur une idée originale de : Baudouin d'Aumeries
Assistance à la programmation : Marc-Olivier Méhu
Soutien technique & logistique : Manuel Goepfert

Contact : metmap@orbifly.com




SOURCES & CREDITS :

   NOAA